Flight Track Log - Related Links

Times and Time Zones

All times are in EDT time to prevent confusion due to time zone crossing. See the JBU33 flight status page for this flight to view local times or setup timezone preferences in your user account.

Time Position Orientation Groundspeed Altitude Reporting Facility
EDT Latitude Longitude Course Direction KTS MPH feet Rate Location/Type
Fri 01:13:17 PM 44.3175 -73.1394 196° South 283 326 6,400  Level Boston Center
Fri 01:14:00 PM 44.1567 -73.2663 195° South  Level FlightAware
Fri 01:14:17 PM 44.2633 -73.1647 198° South 289 333 9,300  Level Boston Center
Fri 01:15:00 PM 44.0787 -73.2955 195° South  Level FlightAware
Fri 01:15:18 PM 44.1650 -73.1983 194° South 289 333 12,500  Level Boston Center
Fri 01:16:00 PM 44.0003 -73.3222 194° South  Level FlightAware
Fri 01:16:15 PM 44.0817 -73.2203 191° South 332 382 14,900  Level Boston Center
Fri 01:17:00 PM 43.9462 -73.3402 193° South  Level FlightAware
Fri 01:17:16 PM 43.9833 -73.2481 191° South 350 403 17,400  Level Boston Center
Fri 01:18:00 PM 43.8925 -73.3597 196° South  Level FlightAware
Fri 01:18:17 PM 43.8833 -73.2725 190° South 372 428 19,600  Level Boston Center
Fri 01:19:15 PM 43.7808 -73.3000 191° South 377 434 21,800 2,067 Climbing Boston Center
Fri 01:20:16 PM 43.6744 -73.3300 192° South 382 440 23,700 1,869 Climbing Boston Center
Fri 01:21:17 PM 43.5639 -73.3542 189° South 394 453 25,600 1,740 Climbing Boston Center
Fri 01:22:27 PM 43.4531 -73.3811 190° South 400 460 27,500 1,099 Climbing Boston Center
Fri 01:23:28 PM 43.3153 -73.4161 190° South 412 474 28,000 246 Climbing Boston Center
Fri 01:24:29 PM 43.2006 -73.4456 191° South 417 480 28,000  Level Boston Center
Fri 01:25:30 PM 43.0708 -73.4775 190° South 424 488 28,000  Level Boston Center
Fri 01:26:39 PM 42.9539 -73.5094 191° South 429 494 28,000  Level Boston Center
Fri 01:27:40 PM 42.8264 -73.5442 191° South 435 501 28,000  Level Boston Center
Fri 01:28:40 PM 42.7053 -73.5731 190° South 435 501 28,000  Level Boston Center
Fri 01:29:52 PM 42.5842 -73.6047 191° South 435 501 28,000  Level Boston Center
Fri 01:30:53 PM 42.4378 -73.6386 190° South 440 506 28,000  Level Boston Center
Fri 01:31:53 PM 42.3167 -73.6614 188° South 445 512 28,000  Level Boston Center
Fri 01:32:54 PM 42.1956 -73.6956 192° South 445 512 28,000  Level Boston Center
Fri 01:33:51 PM 42.0700 -73.7294 191° South 452 520 28,000 -51 Level Boston Center
Fri 01:34:52 PM 41.9489 -73.7606 191° South 452 520 27,900 -2,000 Descending Boston Center
Fri 01:36:48 PM 41.7244 -73.8089 189° South 417 480 22,100 -2,693 Descending New Center
Fri 01:37:48 PM 41.6047 -73.8450 193° South 405 466 20,000 -1,050 Descending New Center
Fri 01:38:48 PM 41.5208 -73.9436 221° Southwest 397 457 20,000  Level New Center
Fri 01:39:48 PM 41.4311 -74.0281 215° Southwest 393 452 20,000  Level New Center
Fri 01:40:48 PM 41.3325 -74.0592 193° South 399 459 20,000  Level New Center
Fri 01:41:48 PM 41.2214 -74.0811 188° South 405 466 20,000 -100 Level New Center
Fri 01:42:48 PM 41.1083 -74.1031 188° South 410 472 19,800 -500 Descending New Center
Fri 01:43:48 PM 40.9889 -74.1247 188° South 410 472 19,000 -400 Descending New Center
Fri 01:44:48 PM 40.9086 -74.0933 164° South 349 402 19,000  Level New Center
Fri 01:45:23 PM 40.8667 -74.0167 126° Southeast 355 409 19,000 -944 Level New TRACON
Fri 01:46:17 PM 40.8167 -73.9333 128° Southeast 348 400 17,600 -1,632 Descending New TRACON
Fri 01:47:17 PM 40.7667 -73.8167 119° Southeast 342 394 15,900 -1,750 Descending New TRACON
Fri 01:48:17 PM 40.7000 -73.7333 137° Southeast 339 390 14,100 -2,100 Descending New TRACON
Fri 01:49:17 PM 40.6167 -73.7000 163° South 373 429 11,700 -2,250 Descending New TRACON
Fri 01:50:17 PM 40.5500 -73.6667 159° South 282 325 9,600 -2,150 Descending New TRACON
Fri 01:51:17 PM 40.4667 -73.6333 163° South 279 321 7,400 -2,200 Descending New TRACON
Fri 01:52:17 PM 40.4000 -73.6167 169° South 279 321 5,200 -1,978 Descending New TRACON
Fri 01:52:48 PM 40.3703 -73.6478 219° Southwest 241 277 4,400 -791 Descending New Center
Fri 01:53:48 PM 40.3431 -73.7447 250° West 240 276 4,000 -200 Descending New Center
Fri 01:54:48 PM 40.3283 -73.8311 257° West 246 283 4,000  Level New Center
Fri 01:55:48 PM 40.3261 -73.9072 268° West 231 266 4,000  Level New Center
Fri 01:56:48 PM 40.3494 -73.9736 295° West 211 243 4,000  Level New Center
Fri 01:57:48 PM 40.3817 -74.0189 313° West 183 211 4,000 -100 Level New Center
Fri 01:58:48 PM 40.4356 -74.0267 354° North 170 196 3,800 -403 Descending New Center
Fri 02:00:17 PM 40.5000 -73.9833 27° Northeast 173 199 3,000 -322 Descending New TRACON
Fri 02:01:17 PM 40.5333 -73.9500 37° Northeast 171 197 3,000  Level New TRACON
Fri 02:02:17 PM 40.5833 -73.9167 27° Northeast 173 199 3,000 -450 Level New TRACON
Fri 02:03:17 PM 40.6167 -73.8833 37° Northeast 166 191 2,100 -850 Descending New TRACON
Fri 02:04:17 PM 40.6500 -73.8667 21° North 145 167 1,300 -750 Descending New TRACON
Fri 02:05:17 PM 40.6667 -73.8167 66° East 140 161 600 -700 Descending New TRACON

Login

Don't have an account? Register now (free) for customized features, flight alerts, and more!